CGBYQ CYXZ-CYVP

Flight info

Callsign CGBYQ
Flight time 3h 8m
Altitude 25000
Route 51N080W 54N074W
Aircraft PC12/L-SDFGRWY/S

Departure

Time 2026-05-09 10:49
Airport Wawa Airport (CYXZ)

Arrival

Time 2026-05-09 13:57
Airport Kuujjuaq Airport (CYVP)
Time Latitude Longitude Altitude Speed Heading
2026-05-09 10:44 47.97388 -84.78170 942 ft 0 kts 36°
2026-05-09 10:46 47.97389 -84.78170 942 ft 0 kts 36°
2026-05-09 10:46 47.97384 -84.78131 943 ft 9 kts 161°
2026-05-09 10:47 47.97319 -84.78173 943 ft 10 kts 200°
2026-05-09 10:47 47.97247 -84.78219 941 ft 10 kts 205°
2026-05-09 10:47 47.97175 -84.78217 941 ft 9 kts 213°
2026-05-09 10:47 47.97160 -84.78231 940 ft 4 kts 212°
2026-05-09 10:48 47.97151 -84.78239 940 ft 0 kts 210°
2026-05-09 10:48 47.97151 -84.78240 940 ft 4 kts 210°
2026-05-09 10:48 47.96951 -84.78405 938 ft 62 kts 209°
2026-05-09 10:49 47.96463 -84.78794 1003 ft 89 kts 204°
2026-05-09 10:49 47.95927 -84.79194 1289 ft 87 kts 213°
2026-05-09 10:49 47.95462 -84.79627 1612 ft 79 kts 209°
2026-05-09 10:49 47.94964 -84.79956 1859 ft 78 kts 178°
2026-05-09 10:50 47.94438 -84.79743 2038 ft 86 kts 165°
2026-05-09 10:50 47.93765 -84.79437 2174 ft 112 kts 162°
2026-05-09 10:50 47.93059 -84.78879 2597 ft 115 kts 134°
2026-05-09 10:50 47.92887 -84.77734 3025 ft 128 kts 74°
2026-05-09 10:51 47.93616 -84.76791 3259 ft 155 kts 10°
2026-05-09 10:51 47.94635 -84.77077 3809 ft 152 kts 345°
2026-05-09 10:51 47.95685 -84.77144 4421 ft 148 kts 13°
2026-05-09 10:51 47.96476 -84.76265 5045 ft 140 kts 47°
2026-05-09 10:52 47.97217 -84.75341 5559 ft 138 kts 33°
2026-05-09 10:52 47.97998 -84.74503 6033 ft 139 kts 33°
2026-05-09 10:52 47.98787 -84.73647 6509 ft 142 kts 33°
2026-05-09 10:52 47.99597 -84.72787 6994 ft 143 kts 31°
2026-05-09 10:53 48.00422 -84.71944 7500 ft 144 kts 31°
2026-05-09 10:53 48.01257 -84.71160 8030 ft 144 kts 28°
2026-05-09 10:53 48.02128 -84.70434 8544 ft 142 kts 21°
2026-05-09 10:53 48.02945 -84.69584 9055 ft 145 kts 41°
2026-05-09 10:54 48.03728 -84.68496 9397 ft 163 kts 43°
2026-05-09 10:54 48.04591 -84.67251 9712 ft 181 kts 43°
2026-05-09 10:54 48.05535 -84.65882 10026 ft 196 kts 43°
2026-05-09 10:54 48.06544 -84.64421 10326 ft 208 kts 43°
2026-05-09 10:55 48.07607 -84.62882 10631 ft 217 kts 43°
2026-05-09 10:55 48.08702 -84.61295 10928 ft 223 kts 42°
2026-05-09 10:55 48.09829 -84.59662 11234 ft 227 kts 42°
2026-05-09 10:55 48.10972 -84.58005 11534 ft 230 kts 41°
2026-05-09 10:56 48.12128 -84.56331 11836 ft 231 kts 41°
2026-05-09 10:56 48.13289 -84.54648 12135 ft 233 kts 41°
2026-05-09 10:56 48.14461 -84.52946 12435 ft 235 kts 41°
2026-05-09 10:56 48.15641 -84.51230 12738 ft 238 kts 41°
2026-05-09 10:57 48.16834 -84.49497 13033 ft 240 kts 40°
2026-05-09 10:57 48.18036 -84.47749 13339 ft 241 kts 40°
2026-05-09 10:57 48.19242 -84.45993 13638 ft 243 kts 40°
2026-05-09 10:57 48.20461 -84.44216 13941 ft 245 kts 40°
2026-05-09 10:58 48.21686 -84.42429 14240 ft 247 kts 40°
2026-05-09 10:58 48.22923 -84.40628 14541 ft 249 kts 40°
2026-05-09 10:58 48.24169 -84.38808 14841 ft 251 kts 40°
2026-05-09 10:58 48.25428 -84.36967 15132 ft 254 kts 40°
2026-05-09 10:59 48.26698 -84.35110 15443 ft 256 kts 39°
2026-05-09 10:59 48.27957 -84.33267 15740 ft 257 kts 39°
2026-05-09 10:59 48.29241 -84.31388 16040 ft 259 kts 39°
2026-05-09 10:59 48.30529 -84.29500 16340 ft 260 kts 39°
2026-05-09 11:00 48.31826 -84.27598 16641 ft 261 kts 39°
2026-05-09 11:00 48.33126 -84.25691 16942 ft 262 kts 39°
2026-05-09 11:00 48.34430 -84.23775 17242 ft 263 kts 39°
2026-05-09 11:00 48.35739 -84.21850 17542 ft 263 kts 38°
2026-05-09 11:01 48.37052 -84.19919 17842 ft 264 kts 38°
2026-05-09 11:01 48.38366 -84.17986 18143 ft 265 kts 38°
2026-05-09 11:01 48.39683 -84.16047 18442 ft 265 kts 38°
2026-05-09 11:01 48.41003 -84.14100 18742 ft 266 kts 38°
2026-05-09 11:02 48.42326 -84.12148 19043 ft 267 kts 38°
2026-05-09 11:02 48.43650 -84.10192 19342 ft 267 kts 38°
2026-05-09 11:02 48.44978 -84.08229 19643 ft 268 kts 39°
2026-05-09 11:02 48.46307 -84.06264 19942 ft 268 kts 39°
2026-05-09 11:03 48.47641 -84.04290 20246 ft 269 kts 39°
2026-05-09 11:03 48.48956 -84.02342 20540 ft 269 kts 39°
2026-05-09 11:03 48.50293 -84.00361 20839 ft 269 kts 39°
2026-05-09 11:03 48.51629 -83.98379 21140 ft 270 kts 39°
2026-05-09 11:04 48.52969 -83.96389 21440 ft 270 kts 39°
2026-05-09 11:04 48.54311 -83.94396 21738 ft 271 kts 39°
2026-05-09 11:04 48.55654 -83.92397 22039 ft 271 kts 39°
2026-05-09 11:04 48.57002 -83.90390 22342 ft 272 kts 39°
2026-05-09 11:05 48.58351 -83.88382 22640 ft 272 kts 39°
2026-05-09 11:05 48.59692 -83.86382 22937 ft 269 kts 39°
2026-05-09 11:05 48.61012 -83.84411 23235 ft 265 kts 39°
2026-05-09 11:05 48.62314 -83.82467 23527 ft 262 kts 39°
2026-05-09 11:06 48.63606 -83.80540 23831 ft 260 kts 39°
2026-05-09 11:06 48.64885 -83.78628 24130 ft 258 kts 39°
2026-05-09 11:06 48.66140 -83.76751 24425 ft 256 kts 39°
2026-05-09 11:06 48.67406 -83.74857 24724 ft 255 kts 39°
2026-05-09 11:07 48.68662 -83.72974 24994 ft 256 kts 39°
2026-05-09 11:07 48.69959 -83.71037 25007 ft 267 kts 39°
2026-05-09 11:07 48.71306 -83.69016 25019 ft 277 kts 39°
2026-05-09 11:07 48.72698 -83.66921 25022 ft 285 kts 40°
2026-05-09 11:08 48.74122 -83.64776 25022 ft 292 kts 40°
2026-05-09 11:08 48.75572 -83.62592 25021 ft 296 kts 40°
2026-05-09 11:08 48.77043 -83.60378 25023 ft 300 kts 40°
2026-05-09 11:08 48.78529 -83.58138 25021 ft 302 kts 40°
2026-05-09 11:09 48.80025 -83.55880 25021 ft 304 kts 40°
2026-05-09 11:09 48.81528 -83.53611 25021 ft 305 kts 40°
2026-05-09 11:09 48.83034 -83.51334 25022 ft 306 kts 40°
2026-05-09 11:09 48.84544 -83.49051 25023 ft 306 kts 40°
2026-05-09 11:10 48.86056 -83.46763 25023 ft 307 kts 40°
2026-05-09 11:10 48.87567 -83.44472 25023 ft 307 kts 40°
2026-05-09 11:10 48.89081 -83.42177 25022 ft 307 kts 40°
2026-05-09 11:10 48.90575 -83.39908 25021 ft 308 kts 40°
2026-05-09 11:11 48.92091 -83.37604 25020 ft 308 kts 40°
2026-05-09 11:11 48.93607 -83.35300 25014 ft 308 kts 40°
2026-05-09 11:11 48.95122 -83.32994 25000 ft 308 kts 40°
2026-05-09 11:11 48.96648 -83.30671 24887 ft 312 kts 40°
2026-05-09 11:12 48.98189 -83.28320 24765 ft 315 kts 40°
2026-05-09 11:12 48.99741 -83.25950 24643 ft 316 kts 40°
2026-05-09 11:12 49.01284 -83.23589 24634 ft 312 kts 40°
2026-05-09 11:12 49.02812 -83.21253 24635 ft 310 kts 40°
2026-05-09 11:13 49.04328 -83.18934 24629 ft 308 kts 40°
2026-05-09 11:13 49.05832 -83.16632 24634 ft 306 kts 40°
2026-05-09 11:13 49.07332 -83.14331 24630 ft 305 kts 40°
2026-05-09 11:13 49.08827 -83.12037 24632 ft 304 kts 40°
2026-05-09 11:14 49.10312 -83.09756 24627 ft 303 kts 39°
2026-05-09 11:14 49.11782 -83.07496 24628 ft 303 kts 39°
2026-05-09 11:14 49.13266 -83.05212 24625 ft 303 kts 39°
2026-05-09 11:14 49.14750 -83.02926 24624 ft 302 kts 40°
2026-05-09 11:15 49.16231 -83.00643 24623 ft 302 kts 40°
2026-05-09 11:15 49.17708 -82.98363 24624 ft 302 kts 40°
2026-05-09 11:15 49.19184 -82.96082 24624 ft 302 kts 40°
2026-05-09 11:15 49.20660 -82.93802 24624 ft 301 kts 39°
2026-05-09 11:16 49.22136 -82.91519 24623 ft 301 kts 39°
2026-05-09 11:16 49.23110 -82.90010 24624 ft 302 kts 40°
2026-05-09 11:16 49.24587 -82.87722 24625 ft 301 kts 40°
2026-05-09 11:16 49.26059 -82.85438 24625 ft 301 kts 40°
2026-05-09 11:17 49.27532 -82.83152 24623 ft 301 kts 40°
2026-05-09 11:17 49.29001 -82.80870 24622 ft 301 kts 40°
2026-05-09 11:17 49.30471 -82.78583 24623 ft 301 kts 40°
2026-05-09 11:17 49.31937 -82.76300 24622 ft 301 kts 40°
2026-05-09 11:18 49.33408 -82.74009 24622 ft 301 kts 40°
2026-05-09 11:18 49.34876 -82.71720 24624 ft 301 kts 40°
2026-05-09 11:18 49.36344 -82.69428 24623 ft 301 kts 40°
2026-05-09 11:18 49.37808 -82.67140 24625 ft 300 kts 40°
2026-05-09 11:19 49.39272 -82.64851 24625 ft 300 kts 40°
2026-05-09 11:19 49.40735 -82.62562 24625 ft 300 kts 40°
2026-05-09 11:19 49.42177 -82.60303 24623 ft 300 kts 40°
2026-05-09 11:19 49.43638 -82.58013 24625 ft 300 kts 40°
2026-05-09 11:20 49.45097 -82.55723 24625 ft 300 kts 40°
2026-05-09 11:20 49.46554 -82.53435 24623 ft 300 kts 40°
2026-05-09 11:20 49.48015 -82.51138 24624 ft 300 kts 40°
2026-05-09 11:20 49.49471 -82.48845 24625 ft 299 kts 40°
2026-05-09 11:21 49.50929 -82.46549 24625 ft 299 kts 40°
2026-05-09 11:21 49.52381 -82.44261 24625 ft 299 kts 40°
2026-05-09 11:21 49.53837 -82.41963 24623 ft 299 kts 40°
2026-05-09 11:21 49.55289 -82.39670 24625 ft 299 kts 39°
2026-05-09 11:22 49.56744 -82.37370 24621 ft 299 kts 39°
2026-05-09 11:22 49.58178 -82.35102 24624 ft 299 kts 39°
2026-05-09 11:22 49.59633 -82.32798 24624 ft 300 kts 40°
2026-05-09 11:22 49.61091 -82.30486 24626 ft 301 kts 39°
2026-05-09 11:23 49.62555 -82.28163 24625 ft 301 kts 39°
2026-05-09 11:23 49.64015 -82.25845 24623 ft 301 kts 40°
2026-05-09 11:23 49.65477 -82.23520 24625 ft 302 kts 40°
2026-05-09 11:23 49.66941 -82.21192 24625 ft 302 kts 40°
2026-05-09 11:24 49.68403 -82.18863 24626 ft 302 kts 40°
2026-05-09 11:24 49.69864 -82.16535 24624 ft 302 kts 40°
2026-05-09 11:24 49.71326 -82.14202 24626 ft 302 kts 40°
2026-05-09 11:24 49.72787 -82.11869 24625 ft 302 kts 40°
2026-05-09 11:25 49.74245 -82.09539 24625 ft 302 kts 40°
2026-05-09 11:25 49.75703 -82.07207 24627 ft 301 kts 40°
2026-05-09 11:25 49.77162 -82.04871 24623 ft 301 kts 40°
2026-05-09 11:25 49.78612 -82.02544 24626 ft 300 kts 40°
2026-05-09 11:26 49.80062 -82.00219 24625 ft 300 kts 40°
2026-05-09 11:26 49.81514 -81.97890 24626 ft 300 kts 40°
2026-05-09 11:26 49.82961 -81.95565 24626 ft 300 kts 40°
2026-05-09 11:26 49.84390 -81.93264 24624 ft 300 kts 40°
2026-05-09 11:27 49.85837 -81.90934 24625 ft 300 kts 40°
2026-05-09 11:27 49.87286 -81.88601 24625 ft 300 kts 40°
2026-05-09 11:27 49.88732 -81.86269 24626 ft 300 kts 40°
2026-05-09 11:27 49.90178 -81.83932 24625 ft 300 kts 40°
2026-05-09 11:28 49.91623 -81.81598 24626 ft 300 kts 40°
2026-05-09 11:28 49.93067 -81.79262 24627 ft 300 kts 40°
2026-05-09 11:28 49.94510 -81.76925 24625 ft 299 kts 40°
2026-05-09 11:28 49.95950 -81.74592 24625 ft 299 kts 40°
2026-05-09 11:29 49.97392 -81.72253 24623 ft 299 kts 40°
2026-05-09 11:29 49.98831 -81.69916 24626 ft 299 kts 40°
2026-05-09 11:29 50.00274 -81.67573 24624 ft 300 kts 40°
2026-05-09 11:29 50.01713 -81.65231 24626 ft 299 kts 40°
2026-05-09 11:30 50.03153 -81.62886 24626 ft 299 kts 40°
2026-05-09 11:30 50.04590 -81.60545 24623 ft 299 kts 40°
2026-05-09 11:30 50.06026 -81.58204 24628 ft 299 kts 40°
2026-05-09 11:30 50.07459 -81.55863 24626 ft 299 kts 40°
2026-05-09 11:31 50.08894 -81.53519 24627 ft 299 kts 40°
2026-05-09 11:31 50.10325 -81.51178 24628 ft 299 kts 40°
2026-05-09 11:31 50.11756 -81.48836 24628 ft 299 kts 40°
2026-05-09 11:31 50.13189 -81.46488 24630 ft 299 kts 40°
2026-05-09 11:32 50.14604 -81.44168 24629 ft 299 kts 40°
2026-05-09 11:32 50.16034 -81.41820 24628 ft 299 kts 40°
2026-05-09 11:32 50.17464 -81.39469 24629 ft 299 kts 40°
2026-05-09 11:32 50.18893 -81.37118 24629 ft 298 kts 40°
2026-05-09 11:33 50.20321 -81.34768 24631 ft 299 kts 40°
2026-05-09 11:33 50.21751 -81.32412 24629 ft 299 kts 40°
2026-05-09 11:33 50.24613 -81.27690 24632 ft 299 kts 40°
2026-05-09 11:34 50.26044 -81.25325 24628 ft 299 kts 40°
2026-05-09 11:34 50.27472 -81.22963 24627 ft 299 kts 40°
2026-05-09 11:34 50.28898 -81.20602 24630 ft 299 kts 40°
2026-05-09 11:34 50.30323 -81.18241 24630 ft 298 kts 40°
2026-05-09 11:35 50.31749 -81.15876 24631 ft 298 kts 40°
2026-05-09 11:35 50.33170 -81.13517 24639 ft 298 kts 40°
2026-05-09 11:35 50.34590 -81.11157 24640 ft 298 kts 40°
2026-05-09 11:35 50.36011 -81.08794 24639 ft 298 kts 40°
2026-05-09 11:36 50.37431 -81.06432 24637 ft 298 kts 40°
2026-05-09 11:36 50.38852 -81.04062 24636 ft 298 kts 40°
2026-05-09 11:36 50.40272 -81.01694 24641 ft 298 kts 40°
2026-05-09 11:36 50.41691 -80.99324 24638 ft 298 kts 40°
2026-05-09 11:37 50.43110 -80.96954 24640 ft 298 kts 40°
2026-05-09 11:37 50.44514 -80.94604 24638 ft 298 kts 40°
2026-05-09 11:37 50.45934 -80.92227 24641 ft 298 kts 40°
2026-05-09 11:37 50.47352 -80.89851 24638 ft 298 kts 40°
2026-05-09 11:38 50.48773 -80.87467 24638 ft 298 kts 40°
2026-05-09 11:38 50.50189 -80.85090 24639 ft 298 kts 40°
2026-05-09 11:38 50.51605 -80.82710 24636 ft 298 kts 40°
2026-05-09 11:38 50.53023 -80.80325 24638 ft 298 kts 40°
2026-05-09 11:39 50.54438 -80.77943 24640 ft 298 kts 40°
2026-05-09 11:39 50.55834 -80.75589 24638 ft 298 kts 40°
2026-05-09 11:39 50.57250 -80.73202 24640 ft 298 kts 40°
2026-05-09 11:40 50.60073 -80.68432 24641 ft 298 kts 40°
2026-05-09 11:40 50.61485 -80.66043 24638 ft 298 kts 40°
2026-05-09 11:40 50.62894 -80.63659 24650 ft 297 kts 40°
2026-05-09 11:40 50.64303 -80.61270 24649 ft 297 kts 40°
2026-05-09 11:41 50.65710 -80.58882 24650 ft 298 kts 40°
2026-05-09 11:41 50.67122 -80.56486 24650 ft 298 kts 40°
2026-05-09 11:41 50.68528 -80.54096 24650 ft 297 kts 40°
2026-05-09 11:41 50.69935 -80.51702 24650 ft 297 kts 40°
2026-05-09 11:42 50.71340 -80.49311 24650 ft 297 kts 40°
2026-05-09 11:42 50.72744 -80.46917 24649 ft 297 kts 40°
2026-05-09 11:42 50.74149 -80.44520 24650 ft 297 kts 40°
2026-05-09 11:42 50.75550 -80.42128 24650 ft 297 kts 41°
2026-05-09 11:43 50.76935 -80.39760 24649 ft 297 kts 41°
2026-05-09 11:43 50.78337 -80.37361 24650 ft 297 kts 41°
2026-05-09 11:43 50.79737 -80.34964 24650 ft 297 kts 41°
2026-05-09 11:43 50.81136 -80.32565 24650 ft 297 kts 41°
2026-05-09 11:44 50.82537 -80.30161 24650 ft 297 kts 41°
2026-05-09 11:44 50.83933 -80.27763 24650 ft 297 kts 41°
2026-05-09 11:44 50.85334 -80.25355 24650 ft 297 kts 41°
2026-05-09 11:44 50.86729 -80.22954 24650 ft 296 kts 41°
2026-05-09 11:45 50.88124 -80.20551 24650 ft 297 kts 41°
2026-05-09 11:45 50.89519 -80.18146 24650 ft 296 kts 41°
2026-05-09 11:45 50.90915 -80.15737 24650 ft 296 kts 41°
2026-05-09 11:45 50.92306 -80.13336 24650 ft 296 kts 41°
2026-05-09 11:46 50.93699 -80.10928 24650 ft 296 kts 41°
2026-05-09 11:46 50.95088 -80.08525 24650 ft 295 kts 41°
2026-05-09 11:46 50.96474 -80.06122 24650 ft 295 kts 42°
2026-05-09 11:46 50.97859 -80.03720 24650 ft 295 kts 42°
2026-05-09 11:47 50.99244 -80.01317 24650 ft 295 kts 42°
2026-05-09 11:47 51.00629 -79.98911 24650 ft 295 kts 42°
2026-05-09 11:47 51.02011 -79.96508 24650 ft 295 kts 43°
2026-05-09 11:47 51.03395 -79.94100 24650 ft 295 kts 43°
2026-05-09 11:48 51.04774 -79.91696 24650 ft 294 kts 43°
2026-05-09 11:48 51.06138 -79.89316 24650 ft 294 kts 43°
2026-05-09 11:48 51.07533 -79.86882 24650 ft 294 kts 43°
2026-05-09 11:48 51.08890 -79.84507 24651 ft 294 kts 43°
2026-05-09 11:49 51.10263 -79.82100 24650 ft 294 kts 43°
2026-05-09 11:49 51.11635 -79.79690 24650 ft 293 kts 43°
2026-05-09 11:49 51.13003 -79.77283 24650 ft 293 kts 43°
2026-05-09 11:49 51.14374 -79.74870 24650 ft 293 kts 44°
2026-05-09 11:50 51.15738 -79.72464 24650 ft 293 kts 44°
2026-05-09 11:50 51.17104 -79.70053 24650 ft 293 kts 44°
2026-05-09 11:50 51.18466 -79.67644 24650 ft 293 kts 44°
2026-05-09 11:50 51.19828 -79.65234 24650 ft 293 kts 44°
2026-05-09 11:51 51.21190 -79.62821 24651 ft 293 kts 44°
2026-05-09 11:51 51.22552 -79.60404 24650 ft 293 kts 44°
2026-05-09 11:51 51.23912 -79.57989 24650 ft 293 kts 44°
2026-05-09 11:51 51.25271 -79.55573 24651 ft 293 kts 44°
2026-05-09 11:52 51.26631 -79.53151 24650 ft 293 kts 44°
2026-05-09 11:52 51.27988 -79.50732 24651 ft 292 kts 44°
2026-05-09 11:52 51.29344 -79.48310 24651 ft 292 kts 44°
2026-05-09 11:52 51.30698 -79.45886 24651 ft 292 kts 44°
2026-05-09 11:53 51.32053 -79.43458 24651 ft 292 kts 44°
2026-05-09 11:53 51.33403 -79.41032 24651 ft 292 kts 45°
2026-05-09 11:53 51.34736 -79.38636 24651 ft 292 kts 45°
2026-05-09 11:53 51.36104 -79.36172 24650 ft 292 kts 45°
2026-05-09 11:54 51.37434 -79.33776 24650 ft 292 kts 45°
2026-05-09 11:54 51.38781 -79.31348 24658 ft 292 kts 45°
2026-05-09 11:54 51.40128 -79.28917 24658 ft 292 kts 45°
2026-05-09 11:54 51.41473 -79.26487 24658 ft 291 kts 45°
2026-05-09 11:55 51.42818 -79.24054 24658 ft 292 kts 45°
2026-05-09 11:56 51.49541 -79.11844 24658 ft 292 kts 45°
2026-05-09 11:56 51.50882 -79.09398 24658 ft 292 kts 45°
2026-05-09 11:56 51.52225 -79.06947 24658 ft 292 kts 45°
2026-05-09 11:57 51.53566 -79.04499 24658 ft 292 kts 45°
2026-05-09 11:57 51.54907 -79.02047 24658 ft 292 kts 45°
2026-05-09 11:57 51.56245 -78.99597 24658 ft 292 kts 46°
2026-05-09 11:57 51.57584 -78.97142 24658 ft 292 kts 46°
2026-05-09 11:58 51.58921 -78.94688 24658 ft 292 kts 46°
2026-05-09 11:58 51.60258 -78.92231 24658 ft 292 kts 46°
2026-05-09 11:58 51.61597 -78.89768 24658 ft 292 kts 46°
2026-05-09 11:58 51.62932 -78.87308 24658 ft 292 kts 46°
2026-05-09 11:59 51.64265 -78.84846 24659 ft 292 kts 46°
2026-05-09 11:59 51.65581 -78.82413 24659 ft 292 kts 46°
2026-05-09 11:59 51.66914 -78.79947 24658 ft 292 kts 46°
2026-05-09 11:59 51.68247 -78.77479 24664 ft 291 kts 46°
2026-05-09 12:00 51.69576 -78.75015 24667 ft 291 kts 46°
2026-05-09 12:00 51.70905 -78.72548 24667 ft 291 kts 47°
2026-05-09 12:00 51.72233 -78.70081 24667 ft 291 kts 47°
2026-05-09 12:00 51.73563 -78.67608 24667 ft 292 kts 47°
2026-05-09 12:01 51.74892 -78.65131 24667 ft 292 kts 47°
2026-05-09 12:01 51.76219 -78.62650 24668 ft 292 kts 47°
2026-05-09 12:01 51.77545 -78.60167 24667 ft 291 kts 47°
2026-05-09 12:01 51.78867 -78.57686 24667 ft 291 kts 47°
2026-05-09 12:02 51.80190 -78.55204 24668 ft 292 kts 47°
2026-05-09 12:02 51.81517 -78.52711 24667 ft 291 kts 48°
2026-05-09 12:02 51.82837 -78.50228 24667 ft 291 kts 48°
2026-05-09 12:02 51.84157 -78.47742 24668 ft 291 kts 48°
2026-05-09 12:03 51.85030 -78.46095 24667 ft 291 kts 48°
2026-05-09 12:03 51.86350 -78.43605 24668 ft 291 kts 48°
2026-05-09 12:03 51.87666 -78.41117 24667 ft 291 kts 48°
2026-05-09 12:03 51.88979 -78.38632 24667 ft 291 kts 49°
2026-05-09 12:04 51.90720 -78.35332 24667 ft 291 kts 49°
2026-05-09 12:04 51.91607 -78.33648 24667 ft 291 kts 49°
2026-05-09 12:04 51.92920 -78.31152 24668 ft 291 kts 49°
2026-05-09 12:04 51.94229 -78.28659 24668 ft 291 kts 49°
2026-05-09 12:05 51.95541 -78.26162 24668 ft 291 kts 49°
2026-05-09 12:05 51.96832 -78.23701 24668 ft 290 kts 49°
2026-05-09 12:05 51.98159 -78.21170 24668 ft 290 kts 49°
2026-05-09 12:05 51.99447 -78.18709 24668 ft 290 kts 49°
2026-05-09 12:06 52.00750 -78.16216 24668 ft 290 kts 49°
2026-05-09 12:06 52.02054 -78.13719 24669 ft 290 kts 49°
2026-05-09 12:06 52.03357 -78.11221 24668 ft 290 kts 49°
2026-05-09 12:06 52.04659 -78.08723 24668 ft 289 kts 49°
2026-05-09 12:07 52.05959 -78.06225 24675 ft 289 kts 49°
2026-05-09 12:07 52.07253 -78.03733 24677 ft 289 kts 49°
2026-05-09 12:07 52.08550 -78.01234 24676 ft 289 kts 49°
2026-05-09 12:07 52.09844 -77.98737 24676 ft 289 kts 49°
2026-05-09 12:08 52.11143 -77.96230 24677 ft 289 kts 49°
2026-05-09 12:08 52.12437 -77.93727 24676 ft 289 kts 50°
2026-05-09 12:08 52.13730 -77.91220 24676 ft 289 kts 50°
2026-05-09 12:08 52.15008 -77.88739 24677 ft 289 kts 50°
2026-05-09 12:09 52.16299 -77.86228 24676 ft 289 kts 50°
2026-05-09 12:09 52.17591 -77.83713 24676 ft 289 kts 50°
2026-05-09 12:09 52.18881 -77.81204 24677 ft 289 kts 50°
2026-05-09 12:10 52.22747 -77.73670 24695 ft 289 kts 50°
2026-05-09 12:10 52.24034 -77.71156 24695 ft 289 kts 50°
2026-05-09 12:10 52.25322 -77.68637 24697 ft 289 kts 50°
2026-05-09 12:11 52.26608 -77.66121 24704 ft 289 kts 50°
2026-05-09 12:11 52.27894 -77.63600 24704 ft 289 kts 50°
2026-05-09 12:11 52.29181 -77.61075 24704 ft 289 kts 50°
2026-05-09 12:11 52.30466 -77.58552 24704 ft 289 kts 50°
2026-05-09 12:12 52.31750 -77.56028 24704 ft 289 kts 50°
2026-05-09 12:12 52.33035 -77.53499 24704 ft 289 kts 49°
2026-05-09 12:12 52.34318 -77.50968 24704 ft 289 kts 49°
2026-05-09 12:12 52.35601 -77.48438 24704 ft 289 kts 49°
2026-05-09 12:13 52.36885 -77.45901 24704 ft 289 kts 49°
2026-05-09 12:13 52.38149 -77.43399 24704 ft 289 kts 49°
2026-05-09 12:13 52.39434 -77.40853 24704 ft 289 kts 49°
2026-05-09 12:13 52.40715 -77.38312 24704 ft 290 kts 49°
2026-05-09 12:14 52.41996 -77.35766 24704 ft 289 kts 49°
2026-05-09 12:14 52.43277 -77.33218 24705 ft 289 kts 49°
2026-05-09 12:14 52.44556 -77.30669 24704 ft 289 kts 49°
2026-05-09 12:14 52.45832 -77.28122 24704 ft 289 kts 49°
2026-05-09 12:15 52.47110 -77.25570 24704 ft 289 kts 49°
2026-05-09 12:15 52.48384 -77.23019 24704 ft 289 kts 50°
2026-05-09 12:15 52.49658 -77.20464 24704 ft 289 kts 50°
2026-05-09 12:15 52.50932 -77.17906 24704 ft 289 kts 50°
2026-05-09 12:16 52.52204 -77.15350 24704 ft 289 kts 50°
2026-05-09 12:16 52.53473 -77.12796 24704 ft 289 kts 50°
2026-05-09 12:16 52.54743 -77.10236 24704 ft 289 kts 50°
2026-05-09 12:16 52.56009 -77.07680 24704 ft 288 kts 50°
2026-05-09 12:17 52.57261 -77.05151 24705 ft 288 kts 50°
2026-05-09 12:17 52.58527 -77.02588 24704 ft 289 kts 50°
2026-05-09 12:17 52.59791 -77.00028 24705 ft 289 kts 50°
2026-05-09 12:17 52.61055 -76.97465 24704 ft 289 kts 50°
2026-05-09 12:18 52.62318 -76.94900 24704 ft 289 kts 50°
2026-05-09 12:18 52.63582 -76.92330 24705 ft 289 kts 50°
2026-05-09 12:18 52.64844 -76.89757 24705 ft 289 kts 50°
2026-05-09 12:18 52.66106 -76.87184 24705 ft 289 kts 50°
2026-05-09 12:19 52.67368 -76.84607 24704 ft 289 kts 51°
2026-05-09 12:19 52.68629 -76.82026 24705 ft 289 kts 51°
2026-05-09 12:19 52.69889 -76.79447 24705 ft 289 kts 51°
2026-05-09 12:19 52.71146 -76.76869 24705 ft 289 kts 51°
2026-05-09 12:20 52.72403 -76.74288 24705 ft 288 kts 51°
2026-05-09 12:20 52.73657 -76.71709 24705 ft 288 kts 51°
2026-05-09 12:20 52.74912 -76.69124 24705 ft 288 kts 51°
2026-05-09 12:20 52.76164 -76.66540 24705 ft 288 kts 51°
2026-05-09 12:21 52.77414 -76.63958 24705 ft 288 kts 51°
2026-05-09 12:21 52.78664 -76.61370 24705 ft 288 kts 51°
2026-05-09 12:21 52.79912 -76.58783 24705 ft 288 kts 51°
2026-05-09 12:21 52.81160 -76.56191 24705 ft 288 kts 51°
2026-05-09 12:22 52.82408 -76.53598 24706 ft 288 kts 51°
2026-05-09 12:22 52.83653 -76.51009 24705 ft 288 kts 51°
2026-05-09 12:22 52.84898 -76.48419 24705 ft 287 kts 51°
2026-05-09 12:22 52.86140 -76.45828 24705 ft 287 kts 51°
2026-05-09 12:23 52.87364 -76.43272 24705 ft 287 kts 51°
2026-05-09 12:23 52.88606 -76.40676 24704 ft 287 kts 51°
2026-05-09 12:23 52.89844 -76.38082 24705 ft 287 kts 51°
2026-05-09 12:23 52.91080 -76.35488 24705 ft 287 kts 51°
2026-05-09 12:24 52.92316 -76.32890 24705 ft 287 kts 51°
2026-05-09 12:24 52.93552 -76.30289 24705 ft 287 kts 52°
2026-05-09 12:24 52.94788 -76.27686 24705 ft 287 kts 52°
2026-05-09 12:24 52.96026 -76.25076 24705 ft 287 kts 52°
2026-05-09 12:25 52.97259 -76.22474 24705 ft 287 kts 52°
2026-05-09 12:25 52.98490 -76.19869 24705 ft 287 kts 52°
2026-05-09 12:25 52.99721 -76.17258 24705 ft 287 kts 52°
2026-05-09 12:25 53.00950 -76.14650 24705 ft 287 kts 52°
2026-05-09 12:26 53.02162 -76.12074 24705 ft 287 kts 52°
2026-05-09 12:26 53.03405 -76.09430 24705 ft 287 kts 52°
2026-05-09 12:26 53.04616 -76.06850 24706 ft 287 kts 52°
2026-05-09 12:26 53.05842 -76.04235 24706 ft 287 kts 52°
2026-05-09 12:27 53.07071 -76.01610 24705 ft 287 kts 52°
2026-05-09 12:27 53.08295 -75.98989 24705 ft 287 kts 52°
2026-05-09 12:27 53.09517 -75.96365 24706 ft 287 kts 52°
2026-05-09 12:27 53.10738 -75.93740 24706 ft 287 kts 52°
2026-05-09 12:28 53.11959 -75.91111 24706 ft 287 kts 52°
2026-05-09 12:28 53.13178 -75.88479 24706 ft 287 kts 52°
2026-05-09 12:28 53.14394 -75.85851 24706 ft 287 kts 52°
2026-05-09 12:28 53.15610 -75.83219 24706 ft 287 kts 52°
2026-05-09 12:29 53.16827 -75.80582 24705 ft 287 kts 53°
2026-05-09 12:29 53.18040 -75.77951 24705 ft 286 kts 53°
2026-05-09 12:29 53.19252 -75.75315 24705 ft 287 kts 53°
2026-05-09 12:29 53.20450 -75.72704 24706 ft 286 kts 53°
2026-05-09 12:30 53.21661 -75.70064 24705 ft 286 kts 53°
2026-05-09 12:30 53.22869 -75.67424 24705 ft 286 kts 53°
2026-05-09 12:30 53.25285 -75.62136 24705 ft 286 kts 53°
2026-05-09 12:31 53.26492 -75.59486 24705 ft 286 kts 53°
2026-05-09 12:31 53.28901 -75.54188 24705 ft 286 kts 53°
2026-05-09 12:31 53.30104 -75.51533 24714 ft 286 kts 53°
2026-05-09 12:32 53.31305 -75.48880 24714 ft 286 kts 53°
2026-05-09 12:32 53.32506 -75.46222 24714 ft 286 kts 53°
2026-05-09 12:32 53.33705 -75.43567 24714 ft 286 kts 53°
2026-05-09 12:32 53.34905 -75.40907 24714 ft 286 kts 53°
2026-05-09 12:33 53.36103 -75.38247 24714 ft 286 kts 53°
2026-05-09 12:33 53.37299 -75.35588 24714 ft 286 kts 53°
2026-05-09 12:33 53.38496 -75.32921 24714 ft 286 kts 53°
2026-05-09 12:33 53.39691 -75.30255 24714 ft 286 kts 53°
2026-05-09 12:34 53.40887 -75.27585 24714 ft 286 kts 53°
2026-05-09 12:34 53.42082 -75.24913 24715 ft 286 kts 53°
2026-05-09 12:34 53.43273 -75.22246 24714 ft 286 kts 53°
2026-05-09 12:34 53.44466 -75.19570 24715 ft 286 kts 53°
2026-05-09 12:35 53.45658 -75.16896 24714 ft 286 kts 53°
2026-05-09 12:35 53.46848 -75.14217 24714 ft 286 kts 53°
2026-05-09 12:35 53.48038 -75.11534 24714 ft 287 kts 53°
2026-05-09 12:35 53.49229 -75.08845 24715 ft 286 kts 54°
2026-05-09 12:36 53.50415 -75.06160 24714 ft 287 kts 54°
2026-05-09 12:36 53.51589 -75.03498 24714 ft 287 kts 54°
2026-05-09 12:36 53.52793 -75.00765 24714 ft 287 kts 54°
2026-05-09 12:36 53.53960 -74.98110 24715 ft 287 kts 54°
2026-05-09 12:37 53.55148 -74.95405 24714 ft 287 kts 54°
2026-05-09 12:37 53.56333 -74.92704 24714 ft 287 kts 54°
2026-05-09 12:37 53.57518 -74.89997 24714 ft 287 kts 54°
2026-05-09 12:37 53.58701 -74.87294 24714 ft 287 kts 54°
2026-05-09 12:38 53.59884 -74.84582 24714 ft 287 kts 54°
2026-05-09 12:38 53.61065 -74.81870 24719 ft 287 kts 54°
2026-05-09 12:38 53.62245 -74.79160 24723 ft 287 kts 54°
2026-05-09 12:38 53.63423 -74.76447 24723 ft 287 kts 54°
2026-05-09 12:39 53.64604 -74.73728 24723 ft 287 kts 54°
2026-05-09 12:39 53.65780 -74.71015 24723 ft 287 kts 54°
2026-05-09 12:39 53.66960 -74.68291 24723 ft 287 kts 54°
2026-05-09 12:39 53.68139 -74.65565 24723 ft 287 kts 54°
2026-05-09 12:40 53.69299 -74.62878 24723 ft 287 kts 54°
2026-05-09 12:40 53.70477 -74.60145 24723 ft 288 kts 54°
2026-05-09 12:40 53.71655 -74.57409 24723 ft 288 kts 54°
2026-05-09 12:40 53.72832 -74.54670 24724 ft 288 kts 54°
2026-05-09 12:41 53.74011 -74.51923 24723 ft 288 kts 54°
2026-05-09 12:41 53.75190 -74.49175 24724 ft 288 kts 54°
2026-05-09 12:41 53.76363 -74.46432 24723 ft 289 kts 54°
2026-05-09 12:41 53.77542 -74.43675 24723 ft 288 kts 54°
2026-05-09 12:42 53.78711 -74.40933 24723 ft 288 kts 54°
2026-05-09 12:42 53.79881 -74.38184 24724 ft 288 kts 54°
2026-05-09 12:42 53.81052 -74.35432 24723 ft 288 kts 54°
2026-05-09 12:42 53.82223 -74.32673 24724 ft 288 kts 54°
2026-05-09 12:43 53.83392 -74.29919 24723 ft 288 kts 54°
2026-05-09 12:43 53.84561 -74.27161 24724 ft 288 kts 54°
2026-05-09 12:43 53.85730 -74.24402 24724 ft 288 kts 54°
2026-05-09 12:43 53.86893 -74.21648 24724 ft 288 kts 54°
2026-05-09 12:44 53.88062 -74.18875 24724 ft 288 kts 54°
2026-05-09 12:44 53.89214 -74.16142 24723 ft 288 kts 54°
2026-05-09 12:44 53.90377 -74.13376 24724 ft 288 kts 54°
2026-05-09 12:44 53.91542 -74.10606 24723 ft 288 kts 55°
2026-05-09 12:45 53.92708 -74.07827 24724 ft 289 kts 55°
2026-05-09 12:45 53.93872 -74.05052 24725 ft 289 kts 55°
2026-05-09 12:45 53.95032 -74.02282 24723 ft 288 kts 55°
2026-05-09 12:45 53.96222 -73.99553 24723 ft 287 kts 50°
2026-05-09 12:46 53.97627 -73.97146 24727 ft 286 kts 39°
2026-05-09 12:46 53.99185 -73.95045 24727 ft 286 kts 36°
2026-05-09 12:46 54.00776 -73.93006 24728 ft 287 kts 36°
2026-05-09 12:46 54.02377 -73.90971 24728 ft 287 kts 35°
2026-05-09 12:47 54.03981 -73.88939 24728 ft 288 kts 35°
2026-05-09 12:47 54.05583 -73.86908 24728 ft 287 kts 35°
2026-05-09 12:47 54.07189 -73.84876 24728 ft 287 kts 35°
2026-05-09 12:47 54.08798 -73.82839 24728 ft 288 kts 35°
2026-05-09 12:48 54.10403 -73.80808 24728 ft 288 kts 35°
2026-05-09 12:48 54.12037 -73.78850 24728 ft 287 kts 32°
2026-05-09 12:48 54.13706 -73.76985 24728 ft 287 kts 31°
2026-05-09 12:48 54.15380 -73.75140 24729 ft 287 kts 31°
2026-05-09 12:49 54.17061 -73.73293 24729 ft 287 kts 31°
2026-05-09 12:49 54.18738 -73.71451 24729 ft 287 kts 31°
2026-05-09 12:49 54.20363 -73.69475 24726 ft 287 kts 39°
2026-05-09 12:49 54.21802 -73.67166 24726 ft 288 kts 44°
2026-05-09 12:50 54.23186 -73.64695 24725 ft 288 kts 47°
2026-05-09 12:50 54.24527 -73.62150 24725 ft 288 kts 48°
2026-05-09 12:50 54.25860 -73.59593 24725 ft 288 kts 48°
2026-05-09 12:50 54.27193 -73.57032 24725 ft 288 kts 48°
2026-05-09 12:51 54.28526 -73.54474 24725 ft 288 kts 48°
2026-05-09 12:51 54.29863 -73.51925 24724 ft 288 kts 47°
2026-05-09 12:51 54.31248 -73.49443 24725 ft 288 kts 45°
2026-05-09 12:51 54.32651 -73.46996 24725 ft 288 kts 45°
2026-05-09 12:52 54.34073 -73.44573 24725 ft 288 kts 43°
2026-05-09 12:52 54.35538 -73.42226 24726 ft 288 kts 42°
2026-05-09 12:52 54.36514 -73.40691 24726 ft 288 kts 42°
2026-05-09 12:52 54.38013 -73.38416 24727 ft 287 kts 39°
2026-05-09 12:53 54.39587 -73.36306 24726 ft 287 kts 36°
2026-05-09 12:53 54.41182 -73.34247 24727 ft 287 kts 36°
2026-05-09 12:53 54.42809 -73.32256 24728 ft 286 kts 32°
2026-05-09 12:53 54.44486 -73.30404 24727 ft 286 kts 31°
2026-05-09 12:54 54.46175 -73.28585 24728 ft 287 kts 31°
2026-05-09 12:54 54.47866 -73.26772 24727 ft 287 kts 31°
2026-05-09 12:54 54.49559 -73.24962 24728 ft 287 kts 31°
2026-05-09 12:54 54.51253 -73.23155 24728 ft 287 kts 31°
2026-05-09 12:55 54.52951 -73.21344 24728 ft 287 kts 31°
2026-05-09 12:55 54.54648 -73.19536 24727 ft 287 kts 31°
2026-05-09 12:55 54.56346 -73.17728 24728 ft 287 kts 31°
2026-05-09 12:55 54.58044 -73.15922 24728 ft 287 kts 31°
2026-05-09 12:56 54.59745 -73.14113 24728 ft 287 kts 31°
2026-05-09 12:56 54.61446 -73.12309 24728 ft 287 kts 31°
2026-05-09 12:56 54.63127 -73.10526 24728 ft 287 kts 31°
2026-05-09 12:56 54.64831 -73.08720 24728 ft 287 kts 31°
2026-05-09 12:57 54.66530 -73.06913 24728 ft 287 kts 31°
2026-05-09 12:57 54.68198 -73.05023 24727 ft 287 kts 33°
2026-05-09 12:57 54.69854 -73.03088 24727 ft 287 kts 33°
2026-05-09 12:57 54.71507 -73.01149 24728 ft 287 kts 33°
2026-05-09 12:58 54.73160 -72.99210 24728 ft 287 kts 33°
2026-05-09 12:58 54.74816 -72.97271 24727 ft 287 kts 33°
2026-05-09 12:58 54.76470 -72.95332 24728 ft 287 kts 33°
2026-05-09 12:58 54.78126 -72.93390 24728 ft 287 kts 34°
2026-05-09 12:59 54.79782 -72.91453 24728 ft 287 kts 33°
2026-05-09 12:59 54.81439 -72.89516 24728 ft 287 kts 33°
2026-05-09 12:59 54.83097 -72.87578 24728 ft 287 kts 33°
2026-05-09 12:59 54.84754 -72.85642 24728 ft 288 kts 33°
2026-05-09 13:00 54.86412 -72.83709 24728 ft 287 kts 33°
2026-05-09 13:00 54.88053 -72.81797 24728 ft 287 kts 33°
2026-05-09 13:00 54.89713 -72.79865 24728 ft 287 kts 33°
2026-05-09 13:00 54.91373 -72.77931 24728 ft 287 kts 33°
2026-05-09 13:01 54.93032 -72.76001 24728 ft 287 kts 33°
2026-05-09 13:01 54.94696 -72.74069 24728 ft 287 kts 33°
2026-05-09 13:01 54.96361 -72.72137 24728 ft 287 kts 33°
2026-05-09 13:01 54.98022 -72.70209 24728 ft 287 kts 33°
2026-05-09 13:02 54.99683 -72.68284 24728 ft 287 kts 33°
2026-05-09 13:02 55.01347 -72.66359 24728 ft 287 kts 33°
2026-05-09 13:02 55.03010 -72.64436 24728 ft 287 kts 33°
2026-05-09 13:02 55.04672 -72.62515 24728 ft 287 kts 33°
2026-05-09 13:03 55.06335 -72.60595 24728 ft 287 kts 33°
2026-05-09 13:03 55.08004 -72.58668 24728 ft 287 kts 33°
2026-05-09 13:03 55.09672 -72.56745 24728 ft 287 kts 33°
2026-05-09 13:03 55.11337 -72.54828 24728 ft 286 kts 33°
2026-05-09 13:04 55.12981 -72.52937 24728 ft 286 kts 33°
2026-05-09 13:04 55.14645 -72.51023 24728 ft 286 kts 33°
2026-05-09 13:04 55.16311 -72.49112 24728 ft 286 kts 33°
2026-05-09 13:04 55.17976 -72.47202 24728 ft 286 kts 33°
2026-05-09 13:05 55.19639 -72.45297 24728 ft 286 kts 33°
2026-05-09 13:05 55.21303 -72.43395 24728 ft 286 kts 33°
2026-05-09 13:05 55.22970 -72.41492 24728 ft 286 kts 33°
2026-05-09 13:05 55.24638 -72.39592 24728 ft 286 kts 33°
2026-05-09 13:06 55.26305 -72.37695 24728 ft 286 kts 33°
2026-05-09 13:06 55.27975 -72.35797 24728 ft 286 kts 33°
2026-05-09 13:06 55.29648 -72.33898 24728 ft 286 kts 33°
2026-05-09 13:06 55.31324 -72.31998 24732 ft 286 kts 33°
2026-05-09 13:07 55.32979 -72.30125 24732 ft 286 kts 33°
2026-05-09 13:07 55.34656 -72.28228 24732 ft 286 kts 33°
2026-05-09 13:07 55.36329 -72.26337 24732 ft 286 kts 33°
2026-05-09 13:07 55.38004 -72.24445 24732 ft 286 kts 33°
2026-05-09 13:08 55.39679 -72.22555 24732 ft 286 kts 33°
2026-05-09 13:08 55.41348 -72.20673 24731 ft 285 kts 33°
2026-05-09 13:08 55.43022 -72.18787 24732 ft 285 kts 33°
2026-05-09 13:08 55.44695 -72.16905 24732 ft 285 kts 33°
2026-05-09 13:09 55.46369 -72.15023 24731 ft 285 kts 33°
2026-05-09 13:09 55.48044 -72.13143 24732 ft 285 kts 33°
2026-05-09 13:09 55.49719 -72.11267 24732 ft 285 kts 33°
2026-05-09 13:09 55.51394 -72.09395 24732 ft 285 kts 33°
2026-05-09 13:10 55.53069 -72.07524 24732 ft 285 kts 33°
2026-05-09 13:10 55.54746 -72.05654 24731 ft 285 kts 33°
2026-05-09 13:10 55.56423 -72.03785 24732 ft 285 kts 33°
2026-05-09 13:10 55.58100 -72.01917 24732 ft 285 kts 33°
2026-05-09 13:11 55.59781 -72.00046 24732 ft 285 kts 33°
2026-05-09 13:11 55.61458 -71.98168 24732 ft 285 kts 34°
2026-05-09 13:11 55.63091 -71.96259 24732 ft 285 kts 34°
2026-05-09 13:11 55.64740 -71.94299 24733 ft 285 kts 35°
2026-05-09 13:12 55.66386 -71.92336 24732 ft 285 kts 35°
2026-05-09 13:12 55.68031 -71.90377 24732 ft 285 kts 35°
2026-05-09 13:12 55.69675 -71.88417 24732 ft 285 kts 35°
2026-05-09 13:12 55.71320 -71.86458 24733 ft 285 kts 35°
2026-05-09 13:13 55.72968 -71.84497 24732 ft 285 kts 35°
2026-05-09 13:13 55.74614 -71.82538 24733 ft 285 kts 35°
2026-05-09 13:13 55.76260 -71.80580 24732 ft 285 kts 35°
2026-05-09 13:13 55.77909 -71.78619 24733 ft 285 kts 34°
2026-05-09 13:14 55.79556 -71.76661 24732 ft 285 kts 34°
2026-05-09 13:14 55.81202 -71.74704 24732 ft 285 kts 34°
2026-05-09 13:16 55.92695 -71.60947 24732 ft 284 kts 37°
2026-05-09 13:16 55.94275 -71.58826 24732 ft 284 kts 38°
2026-05-09 13:16 55.95848 -71.56681 24732 ft 284 kts 38°
2026-05-09 13:16 55.97419 -71.54537 24732 ft 284 kts 38°
2026-05-09 13:17 55.98993 -71.52386 24732 ft 285 kts 38°
2026-05-09 13:17 56.00570 -71.50231 24732 ft 284 kts 38°
2026-05-09 13:17 56.02147 -71.48080 24733 ft 284 kts 38°
2026-05-09 13:17 56.03717 -71.45943 24732 ft 284 kts 38°
2026-05-09 13:18 56.05291 -71.43802 24732 ft 284 kts 38°
2026-05-09 13:18 56.06865 -71.41661 24733 ft 284 kts 38°
2026-05-09 13:18 56.08419 -71.39548 24733 ft 284 kts 38°
2026-05-09 13:18 56.09994 -71.37407 24732 ft 284 kts 38°
2026-05-09 13:19 56.11565 -71.35272 24732 ft 284 kts 38°
2026-05-09 13:19 56.13137 -71.33139 24732 ft 283 kts 38°
2026-05-09 13:19 56.14712 -71.31004 24732 ft 284 kts 38°
2026-05-09 13:19 56.16289 -71.28854 24732 ft 284 kts 39°
2026-05-09 13:20 56.17826 -71.26635 24731 ft 284 kts 41°
2026-05-09 13:20 56.19344 -71.24376 24731 ft 284 kts 41°
2026-05-09 13:20 56.20863 -71.22103 24732 ft 284 kts 41°
2026-05-09 13:20 56.22377 -71.19835 24732 ft 284 kts 41°
2026-05-09 13:21 56.23894 -71.17561 24732 ft 284 kts 41°
2026-05-09 13:21 56.25413 -71.15284 24732 ft 284 kts 41°
2026-05-09 13:21 56.26933 -71.13008 24732 ft 284 kts 41°
2026-05-09 13:21 56.28452 -71.10732 24732 ft 284 kts 41°
2026-05-09 13:22 56.29972 -71.08455 24732 ft 284 kts 41°
2026-05-09 13:22 56.31469 -71.06209 24732 ft 284 kts 41°
2026-05-09 13:22 56.32988 -71.03932 24732 ft 284 kts 41°
2026-05-09 13:23 56.39058 -70.94832 24732 ft 283 kts 41°
2026-05-09 13:23 56.40576 -70.92557 24732 ft 283 kts 41°
2026-05-09 13:24 56.42093 -70.90283 24732 ft 283 kts 41°
2026-05-09 13:24 56.43610 -70.88010 24732 ft 283 kts 41°
2026-05-09 13:24 56.45105 -70.85770 24732 ft 283 kts 41°
2026-05-09 13:24 56.46624 -70.83494 24732 ft 283 kts 41°
2026-05-09 13:25 56.48142 -70.81219 24732 ft 283 kts 41°
2026-05-09 13:25 56.49663 -70.78941 24732 ft 283 kts 41°
2026-05-09 13:25 56.52701 -70.74391 24732 ft 283 kts 41°
2026-05-09 13:26 56.54220 -70.72116 24732 ft 283 kts 41°
2026-05-09 13:26 56.55740 -70.69841 24732 ft 283 kts 41°
2026-05-09 13:26 56.57262 -70.67562 24732 ft 283 kts 41°
2026-05-09 13:26 56.58781 -70.65287 24732 ft 283 kts 41°
2026-05-09 13:27 56.60302 -70.63012 24732 ft 283 kts 40°
2026-05-09 13:27 56.61826 -70.60732 24732 ft 284 kts 41°
2026-05-09 13:27 56.63348 -70.58456 24732 ft 283 kts 40°
2026-05-09 13:27 56.64869 -70.56181 24732 ft 283 kts 40°
2026-05-09 13:28 56.66393 -70.53903 24732 ft 283 kts 40°
2026-05-09 13:28 56.67914 -70.51627 24732 ft 283 kts 40°
2026-05-09 13:28 56.69434 -70.49352 24732 ft 283 kts 40°
2026-05-09 13:28 56.70954 -70.47079 24732 ft 283 kts 40°
2026-05-09 13:29 56.72475 -70.44804 24732 ft 283 kts 40°
2026-05-09 13:29 56.73977 -70.42556 24732 ft 282 kts 40°
2026-05-09 13:29 56.75496 -70.40285 24732 ft 282 kts 40°
2026-05-09 13:29 56.77018 -70.38010 24732 ft 283 kts 40°
2026-05-09 13:30 56.78537 -70.35740 24732 ft 282 kts 40°
2026-05-09 13:30 56.80059 -70.33466 24732 ft 282 kts 40°
2026-05-09 13:30 56.81579 -70.31195 24732 ft 282 kts 40°
2026-05-09 13:30 56.83099 -70.28925 24732 ft 282 kts 40°
2026-05-09 13:31 56.84621 -70.26656 24732 ft 282 kts 40°
2026-05-09 13:31 56.86142 -70.24389 24732 ft 282 kts 40°
2026-05-09 13:31 56.87666 -70.22118 24732 ft 282 kts 40°
2026-05-09 13:31 56.89188 -70.19849 24732 ft 282 kts 40°
2026-05-09 13:32 56.90714 -70.17576 24733 ft 283 kts 40°
2026-05-09 13:32 56.93766 -70.13037 24732 ft 282 kts 40°
2026-05-09 13:32 56.95291 -70.10770 24733 ft 282 kts 40°
2026-05-09 13:33 56.96816 -70.08501 24732 ft 282 kts 40°
2026-05-09 13:33 56.98343 -70.06226 24732 ft 283 kts 40°
2026-05-09 13:33 56.99868 -70.03956 24733 ft 282 kts 40°
2026-05-09 13:33 57.01394 -70.01688 24732 ft 282 kts 40°
2026-05-09 13:34 57.02903 -69.99446 24732 ft 282 kts 40°
2026-05-09 13:34 57.04427 -69.97181 24732 ft 282 kts 40°
2026-05-09 13:34 57.05955 -69.94911 24733 ft 282 kts 40°
2026-05-09 13:34 57.07482 -69.92643 24732 ft 282 kts 40°
2026-05-09 13:35 57.09012 -69.90372 24732 ft 282 kts 40°
2026-05-09 13:35 57.10540 -69.88107 24732 ft 282 kts 40°
2026-05-09 13:35 57.12079 -69.85825 24534 ft 289 kts 40°
2026-05-09 13:35 57.13656 -69.83479 24157 ft 290 kts 40°
2026-05-09 13:36 57.15210 -69.81160 23778 ft 285 kts 40°
2026-05-09 13:36 57.16735 -69.78876 23404 ft 281 kts 40°
2026-05-09 13:36 57.18224 -69.76644 23033 ft 278 kts 40°
2026-05-09 13:36 57.19717 -69.74402 22663 ft 276 kts 40°
2026-05-09 13:37 57.21203 -69.72168 22282 ft 274 kts 40°
2026-05-09 13:37 57.22677 -69.69947 21907 ft 273 kts 40°
2026-05-09 13:37 57.24143 -69.67731 21533 ft 272 kts 40°
2026-05-09 13:37 57.25608 -69.65514 21149 ft 271 kts 40°
2026-05-09 13:38 57.27063 -69.63306 20779 ft 271 kts 40°
2026-05-09 13:38 57.28518 -69.61090 20405 ft 271 kts 40°
2026-05-09 13:38 57.29970 -69.58872 20030 ft 270 kts 40°
2026-05-09 13:38 57.31420 -69.56650 19654 ft 270 kts 40°
2026-05-09 13:39 57.32850 -69.54451 19285 ft 270 kts 40°
2026-05-09 13:39 57.34292 -69.52226 18910 ft 270 kts 40°
2026-05-09 13:39 57.35730 -69.49999 18536 ft 269 kts 40°
2026-05-09 13:39 57.37167 -69.47769 18159 ft 269 kts 40°
2026-05-09 13:40 57.38598 -69.45544 17786 ft 268 kts 40°
2026-05-09 13:40 57.40025 -69.43317 17421 ft 268 kts 40°
2026-05-09 13:40 57.41449 -69.41092 17039 ft 267 kts 40°
2026-05-09 13:40 57.42866 -69.38873 16660 ft 266 kts 40°
2026-05-09 13:41 57.43803 -69.37404 16412 ft 266 kts 40°
2026-05-09 13:41 57.45212 -69.35190 16037 ft 265 kts 40°
2026-05-09 13:41 57.46617 -69.32976 15661 ft 264 kts 40°
2026-05-09 13:41 57.48015 -69.30769 15287 ft 264 kts 40°
2026-05-09 13:42 57.49867 -69.27838 14791 ft 263 kts 40°
2026-05-09 13:42 57.50803 -69.26351 14565 ft 261 kts 40°
2026-05-09 13:42 57.52178 -69.24162 14263 ft 258 kts 40°
2026-05-09 13:42 57.53543 -69.21986 13938 ft 257 kts 40°
2026-05-09 13:43 57.54884 -69.19847 13617 ft 258 kts 40°
2026-05-09 13:43 57.56255 -69.17658 13294 ft 262 kts 40°
2026-05-09 13:43 57.57649 -69.15426 12969 ft 265 kts 40°
2026-05-09 13:43 57.59053 -69.13169 12644 ft 267 kts 40°
2026-05-09 13:44 57.60463 -69.10901 12319 ft 268 kts 40°
2026-05-09 13:44 57.61876 -69.08624 11994 ft 269 kts 39°
2026-05-09 13:44 57.63287 -69.06339 11669 ft 268 kts 40°
2026-05-09 13:44 57.64696 -69.04058 11344 ft 268 kts 40°
2026-05-09 13:45 57.66105 -69.01778 11019 ft 268 kts 40°
2026-05-09 13:45 57.67514 -68.99500 10694 ft 268 kts 39°
2026-05-09 13:45 57.68918 -68.97228 10369 ft 267 kts 40°
2026-05-09 13:45 57.70321 -68.94961 10044 ft 266 kts 39°
2026-05-09 13:46 57.71719 -68.92700 9718 ft 265 kts 39°
2026-05-09 13:46 57.73109 -68.90452 9394 ft 264 kts 39°
2026-05-09 13:46 57.74500 -68.88196 9069 ft 264 kts 39°
2026-05-09 13:46 57.75887 -68.85947 8745 ft 263 kts 39°
2026-05-09 13:47 57.77266 -68.83705 8417 ft 262 kts 39°
2026-05-09 13:47 57.78642 -68.81471 8091 ft 261 kts 39°
2026-05-09 13:47 57.80013 -68.79247 7766 ft 260 kts 39°
2026-05-09 13:47 57.81377 -68.77034 7442 ft 259 kts 39°
2026-05-09 13:48 57.82721 -68.74852 7120 ft 258 kts 39°
2026-05-09 13:48 57.84075 -68.72657 6793 ft 255 kts 39°
2026-05-09 13:48 57.85404 -68.70503 6468 ft 250 kts 39°
2026-05-09 13:48 57.86701 -68.68399 6144 ft 244 kts 39°
2026-05-09 13:49 57.87970 -68.66343 5815 ft 237 kts 39°
2026-05-09 13:49 57.89207 -68.64343 5492 ft 232 kts 39°
2026-05-09 13:49 57.90421 -68.62382 5165 ft 228 kts 39°
2026-05-09 13:49 57.91614 -68.60469 4839 ft 223 kts 40°
2026-05-09 13:50 57.92785 -68.58603 4513 ft 219 kts 39°
2026-05-09 13:50 57.93935 -68.56786 4186 ft 212 kts 40°
2026-05-09 13:50 57.95041 -68.55053 3859 ft 201 kts 38°
2026-05-09 13:50 57.96138 -68.53563 3533 ft 188 kts 34°
2026-05-09 13:51 57.97190 -68.52169 3205 ft 182 kts 35°
2026-05-09 13:51 57.98212 -68.50808 2882 ft 178 kts 35°
2026-05-09 13:51 57.99217 -68.49483 2553 ft 174 kts 35°
2026-05-09 13:51 58.00197 -68.48194 2232 ft 170 kts 35°
2026-05-09 13:52 58.01160 -68.46932 1900 ft 168 kts 35°
2026-05-09 13:52 58.02125 -68.45668 1574 ft 169 kts 35°
2026-05-09 13:52 58.03060 -68.44446 1503 ft 156 kts 36°
2026-05-09 13:52 58.03942 -68.43301 1500 ft 152 kts 35°
2026-05-09 13:53 58.04809 -68.42176 1499 ft 150 kts 35°
2026-05-09 13:53 58.05653 -68.41084 1490 ft 144 kts 35°
2026-05-09 13:53 58.06455 -68.40049 1485 ft 139 kts 35°
2026-05-09 13:53 58.07238 -68.39041 1497 ft 133 kts 35°
2026-05-09 13:54 58.07978 -68.38091 1504 ft 126 kts 35°
2026-05-09 13:54 58.08702 -68.37162 1503 ft 126 kts 35°
2026-05-09 13:54 58.09435 -68.36217 1505 ft 129 kts 35°
2026-05-09 13:54 58.10181 -68.35257 1506 ft 130 kts 35°
2026-05-09 13:55 58.10931 -68.34290 1502 ft 131 kts 34°
2026-05-09 13:55 58.11784 -68.34087 1510 ft 126 kts 334°
2026-05-09 13:55 58.12271 -68.35322 1510 ft 120 kts 275°
2026-05-09 13:55 58.12353 -68.36874 1499 ft 116 kts 268°
2026-05-09 13:56 58.12129 -68.38235 1183 ft 108 kts 222°
2026-05-09 13:56 58.11438 -68.38926 599 ft 109 kts 205°
2026-05-09 13:56 58.10870 -68.39667 441 ft 88 kts 218°
2026-05-09 13:56 58.10446 -68.40394 352 ft 79 kts 217°
2026-05-09 13:57 58.10043 -68.41087 251 ft 82 kts 219°
2026-05-09 13:57 58.09621 -68.41802 118 ft 74 kts 217°
2026-05-09 13:57 58.09369 -68.42220 110 ft 9 kts 225°
2026-05-09 13:57 58.09329 -68.42325 109 ft 18 kts 351°
2026-05-09 13:58 58.09441 -68.42147 111 ft 25 kts 41°
2026-05-09 13:58 58.09575 -68.41921 116 ft 24 kts 43°
2026-05-09 13:58 58.09688 -68.41714 116 ft 18 kts 11°
2026-05-09 13:58 58.09768 -68.41798 114 ft 12 kts 300°
2026-05-09 13:59 58.09851 -68.41961 116 ft 21 kts 315°
2026-05-09 13:59 58.09921 -68.42009 114 ft 10 kts 10°
2026-05-09 13:59 58.09985 -68.41941 115 ft 10 kts
2026-05-09 13:59 58.10023 -68.41949 117 ft 4 kts 259°
2026-05-09 14:00 58.10023 -68.41950 117 ft 0 kts 252°